createdAt,value
2024-01-01T00:01:35.450Z,2.81
2024-01-01T00:04:27.128Z,2.78
2024-01-01T00:07:22.496Z,2.78
2024-01-01T00:10:12.461Z,2.79
2024-01-01T00:13:02.631Z,2.77
2024-01-01T00:15:52.169Z,2.79
2024-01-01T00:18:42.562Z,2.82
2024-01-01T00:21:34.792Z,2.83
2024-01-01T00:24:25.117Z,2.79
2024-01-01T00:27:14.414Z,2.73
2024-01-01T00:30:05.833Z,2.72
2024-01-01T00:33:01.600Z,2.70
2024-01-01T00:35:43.082Z,2.73
2024-01-01T00:38:32.617Z,2.77
2024-01-01T00:41:27.060Z,2.78
2024-01-01T00:43:57.507Z,2.77
2024-01-01T00:46:50.768Z,2.75
2024-01-01T00:49:40.045Z,2.78
2024-01-01T00:52:30.329Z,2.78
2024-01-01T00:55:24.028Z,2.76
2024-01-01T00:58:31.809Z,2.76
2024-01-01T01:01:22.443Z,2.71
2024-01-01T01:04:17.127Z,2.66
2024-01-01T01:07:07.331Z,2.61
2024-01-01T01:10:00.497Z,2.57
2024-01-01T01:12:54.253Z,2.60
2024-01-01T01:15:48.823Z,2.63
2024-01-01T01:18:39.413Z,2.66
2024-01-01T01:21:30.697Z,2.68
2024-01-01T01:24:22.009Z,2.72
2024-01-01T01:27:13.981Z,2.73
2024-01-01T01:30:07.624Z,2.66
2024-01-01T01:32:58.599Z,2.68
2024-01-01T01:35:51.828Z,2.69
2024-01-01T01:38:53.016Z,2.68
2024-01-01T01:41:38.668Z,2.73
2024-01-01T01:44:29.637Z,2.75
2024-01-01T01:47:19.832Z,2.73
2024-01-01T01:51:48.540Z,2.72
2024-01-01T01:53:24.836Z,2.68
2024-01-01T01:55:59.235Z,2.60
2024-01-01T01:58:53.238Z,2.53
2024-01-01T02:01:49.442Z,2.44
2024-01-01T02:04:31.229Z,2.40
2024-01-01T02:07:22.052Z,2.40
2024-01-01T02:10:15.269Z,2.34
2024-01-01T02:13:07.509Z,2.32
2024-01-01T02:15:57.412Z,2.33
2024-01-01T02:18:47.467Z,2.33
2024-01-01T02:21:37.685Z,2.32
2024-01-01T02:24:28.189Z,2.28
2024-01-01T02:27:18.171Z,2.27
2024-01-01T02:30:11.889Z,2.30
2024-01-01T02:33:09.034Z,2.33
2024-01-01T02:35:39.709Z,2.35
2024-01-01T02:38:29.733Z,2.38
2024-01-01T02:41:21.497Z,2.38
2024-01-01T02:44:11.909Z,2.33
2024-01-01T02:47:03.420Z,2.20
2024-01-01T02:49:53.386Z,2.10
2024-01-01T02:52:44.446Z,2.08
2024-01-01T02:55:37.263Z,2.05
2024-01-01T02:58:30.562Z,1.99
2024-01-01T03:01:21.445Z,1.93
2024-01-01T03:04:12.401Z,1.91
2024-01-01T03:07:03.314Z,1.88
2024-01-01T03:09:55.876Z,1.88
2024-01-01T03:12:45.445Z,1.88
2024-01-01T03:15:36.163Z,1.90
2024-01-01T03:18:26.983Z,1.91
2024-01-01T03:21:17.201Z,1.92
2024-01-01T03:24:08.734Z,1.94
2024-01-01T03:27:02.025Z,1.91
2024-01-01T03:29:53.613Z,1.96
2024-01-01T03:32:46.881Z,2.03
2024-01-01T03:35:38.275Z,2.10
2024-01-01T03:38:30.430Z,2.17
2024-01-01T03:41:20.690Z,2.24
2024-01-01T03:44:15.044Z,2.30
2024-01-01T03:47:05.132Z,2.32
2024-01-01T03:49:57.103Z,2.26
2024-01-01T03:52:48.292Z,2.14
2024-01-01T03:55:39.908Z,2.04
2024-01-01T03:58:29.855Z,1.95
2024-01-01T04:01:22.683Z,1.95
2024-01-01T04:04:13.108Z,1.91
2024-01-01T04:07:03.712Z,1.86
2024-01-01T04:09:53.581Z,1.80
2024-01-01T04:12:43.807Z,1.77
2024-01-01T04:15:34.861Z,1.82
2024-01-01T04:18:25.600Z,1.88
2024-01-01T04:21:16.034Z,1.94
2024-01-01T04:24:08.131Z,2.00
2024-01-01T04:26:59.919Z,2.06
2024-01-01T04:29:51.119Z,2.08
2024-01-01T04:32:41.682Z,2.14
2024-01-01T04:35:32.887Z,2.22
2024-01-01T04:38:22.818Z,2.29
2024-01-01T04:41:14.005Z,2.32
2024-01-01T04:44:05.018Z,2.36
2024-01-01T04:46:56.902Z,2.41
2024-01-01T04:49:46.951Z,2.48
2024-01-01T04:52:41.950Z,2.54
2024-01-01T04:55:34.288Z,2.59
2024-01-01T04:58:25.394Z,2.62
2024-01-01T05:01:15.673Z,2.61
2024-01-01T05:04:07.291Z,2.61
2024-01-01T05:06:57.748Z,2.59
2024-01-01T05:09:47.901Z,2.60
2024-01-01T05:12:38.859Z,2.61
2024-01-01T05:15:29.816Z,2.61
2024-01-01T05:18:22.050Z,2.63
2024-01-01T05:21:12.075Z,2.68
2024-01-01T05:24:01.903Z,2.68
2024-01-01T05:26:54.176Z,2.63
2024-01-01T05:29:44.150Z,2.62
2024-01-01T05:32:35.748Z,2.59
2024-01-01T05:35:25.801Z,2.64
2024-01-01T05:38:18.101Z,2.65
2024-01-01T05:41:13.206Z,2.70
2024-01-01T05:44:06.567Z,2.70
2024-01-01T05:46:56.792Z,2.66
2024-01-01T05:49:52.279Z,2.66
2024-01-01T05:52:44.937Z,2.65
2024-01-01T05:55:36.073Z,2.62
2024-01-01T05:58:28.187Z,2.59
2024-01-01T06:01:23.497Z,2.58
2024-01-01T06:04:14.693Z,2.56
2024-01-01T06:07:04.855Z,2.53
2024-01-01T06:10:00.303Z,2.57
2024-01-01T06:12:53.458Z,2.63
2024-01-01T06:15:43.864Z,2.67
2024-01-01T06:18:36.191Z,2.65
2024-01-01T06:21:27.880Z,2.64
2024-01-01T06:24:17.670Z,2.70
2024-01-01T06:27:07.149Z,2.73
2024-01-01T06:30:01.752Z,2.76
2024-01-01T06:32:54.087Z,2.75
2024-01-01T06:35:47.040Z,2.80
2024-01-01T06:38:37.733Z,2.83
2024-01-01T06:41:28.883Z,2.82
2024-01-01T06:44:18.547Z,2.83
2024-01-01T06:47:08.783Z,2.80
2024-01-01T06:49:59.547Z,2.84
2024-01-01T06:52:56.909Z,2.89
2024-01-01T06:55:48.375Z,2.92
2024-01-01T06:58:39.231Z,2.89
2024-01-01T07:01:30.834Z,2.82
2024-01-01T07:04:22.145Z,2.71
2024-01-01T07:07:12.140Z,2.66
2024-01-01T07:10:03.207Z,2.69
2024-01-01T07:12:56.479Z,2.71
2024-01-01T07:15:48.491Z,2.79
2024-01-01T07:18:40.744Z,2.81
2024-01-01T07:21:32.417Z,2.77
2024-01-01T07:24:21.517Z,2.80
2024-01-01T07:27:14.368Z,2.82
2024-01-01T07:30:06.493Z,2.86
2024-01-01T07:32:57.463Z,2.91
2024-01-01T07:35:47.082Z,2.89
2024-01-01T07:38:38.509Z,2.84
2024-01-01T07:41:37.018Z,2.87
2024-01-01T07:44:30.142Z,2.95
2024-01-01T07:47:22.596Z,2.99
2024-01-01T07:50:22.051Z,2.99
2024-01-01T07:53:12.779Z,2.92
2024-01-01T07:56:05.528Z,2.91
2024-01-01T07:58:56.625Z,2.97
2024-01-01T08:01:47.465Z,2.98
2024-01-01T08:04:38.391Z,2.95
2024-01-01T08:07:29.693Z,2.89
2024-01-01T08:10:20.950Z,2.85
2024-01-01T08:13:07.919Z,2.85
2024-01-01T08:16:11.340Z,2.86
2024-01-01T08:19:25.328Z,2.83
2024-01-01T08:22:21.292Z,2.82
2024-01-01T08:25:22.783Z,2.84
2024-01-01T08:28:33.855Z,2.83
2024-01-01T08:31:27.432Z,2.81
2024-01-01T08:34:19.320Z,2.78
2024-01-01T08:37:42.044Z,2.83
2024-01-01T08:40:37.785Z,2.90
2024-01-01T08:43:33.821Z,2.95
2024-01-01T08:46:38.440Z,2.97
2024-01-01T08:49:20.456Z,3.01
2024-01-01T08:52:09.905Z,3.04
2024-01-01T08:54:50.826Z,3.07
2024-01-01T08:57:42.317Z,3.14
2024-01-01T09:00:33.247Z,3.19
2024-01-01T09:03:22.615Z,3.20
2024-01-01T09:06:13.059Z,3.23
2024-01-01T09:09:02.557Z,3.27
2024-01-01T09:11:54.472Z,3.34
2024-01-01T09:14:44.120Z,3.40
2024-01-01T09:17:56.698Z,3.43
2024-01-01T09:20:49.152Z,3.45
2024-01-01T09:23:42.928Z,3.48
2024-01-01T09:26:25.554Z,3.50
2024-01-01T09:29:14.915Z,3.48
2024-01-01T09:32:06.416Z,3.45
2024-01-01T09:34:55.876Z,3.42
2024-01-01T09:38:07.988Z,3.40
2024-01-01T09:40:48.239Z,3.38
2024-01-01T09:43:37.594Z,3.38
2024-01-01T09:46:34.117Z,3.38
2024-01-01T09:49:48.931Z,3.38
2024-01-01T09:52:43.971Z,3.39
2024-01-01T09:55:33.591Z,3.40
2024-01-01T09:58:23.339Z,3.42
2024-01-01T10:01:16.432Z,3.43
2024-01-01T10:04:08.092Z,3.46
2024-01-01T10:06:39.425Z,3.46
2024-01-01T10:09:29.639Z,3.49
2024-01-01T10:12:23.940Z,3.53
2024-01-01T10:15:17.429Z,3.58
2024-01-01T10:18:14.540Z,3.60
2024-01-01T10:21:14.534Z,3.65
2024-01-01T10:24:23.254Z,3.67
2024-01-01T10:27:23.185Z,3.67
2024-01-01T10:30:13.112Z,3.70
2024-01-01T10:33:17.613Z,3.73
2024-01-01T10:36:02.968Z,3.74
2024-01-01T10:38:51.582Z,3.74
2024-01-01T10:41:42.960Z,3.70
2024-01-01T10:44:32.200Z,3.65
2024-01-01T10:47:40.602Z,3.67
2024-01-01T10:51:22.658Z,3.66
2024-01-01T10:54:55.065Z,3.64
2024-01-01T10:58:06.708Z,3.62
2024-01-01T11:01:07.290Z,3.64
2024-01-01T11:03:56.757Z,3.67
2024-01-01T11:06:46.513Z,3.66
2024-01-01T11:09:37.432Z,3.62
2024-01-01T11:12:36.560Z,3.61
2024-01-01T11:16:07.901Z,3.68
2024-01-01T11:19:48.519Z,3.66
2024-01-01T11:22:41.162Z,3.65
2024-01-01T11:25:36.967Z,3.64
2024-01-01T11:28:40.327Z,3.62
2024-01-01T11:31:53.766Z,3.62
2024-01-01T11:36:03.612Z,3.63
2024-01-01T11:39:12.654Z,3.69
2024-01-01T11:42:03.470Z,3.68
2024-01-01T11:44:43.616Z,3.65
2024-01-01T11:47:33.540Z,3.62
2024-01-01T11:50:15.038Z,3.59
2024-01-01T11:53:08.490Z,3.54
2024-01-01T11:56:07.458Z,3.49
2024-01-01T11:59:14.482Z,3.46
2024-01-01T12:02:07.144Z,3.45
2024-01-01T12:04:59.901Z,3.45
2024-01-01T12:07:49.447Z,3.46
2024-01-01T12:10:37.463Z,3.46
2024-01-01T12:13:28.028Z,3.48
2024-01-01T12:16:20.367Z,3.47
2024-01-01T12:19:46.219Z,3.49
2024-01-01T12:22:35.553Z,3.50
2024-01-01T12:25:28.581Z,3.51
2024-01-01T12:28:35.151Z,3.53
2024-01-01T12:31:24.653Z,3.50
2024-01-01T12:34:18.315Z,3.47
2024-01-01T12:37:16.040Z,3.45
2024-01-01T12:40:07.999Z,3.47
2024-01-01T12:42:57.588Z,3.45
2024-01-01T12:45:48.879Z,3.39
2024-01-01T12:48:38.766Z,3.37
2024-01-01T12:51:29.715Z,3.37
2024-01-01T12:54:49.013Z,3.40
2024-01-01T12:58:34.253Z,3.42
2024-01-01T13:01:06.070Z,3.41
2024-01-01T13:04:21.151Z,3.40
2024-01-01T13:07:37.492Z,3.38
2024-01-01T13:11:37.592Z,3.37
2024-01-01T13:14:24.985Z,3.39
2024-01-01T13:17:15.376Z,3.40
2024-01-01T13:20:06.386Z,3.44
2024-01-01T13:23:17.341Z,3.45
2024-01-01T13:26:10.171Z,3.44
2024-01-01T13:29:07.558Z,3.45
2024-01-01T13:31:58.186Z,3.50
2024-01-01T13:34:50.119Z,3.58
2024-01-01T13:37:41.756Z,3.62
2024-01-01T13:40:34.918Z,3.62
2024-01-01T13:43:28.171Z,3.66
2024-01-01T13:46:17.448Z,3.74
2024-01-01T13:50:26.754Z,3.78
2024-01-01T13:52:20.742Z,3.81
2024-01-01T13:55:20.640Z,3.87
2024-01-01T13:58:13.573Z,3.86
2024-01-01T14:01:20.737Z,3.81
2024-01-01T14:04:10.713Z,3.79
2024-01-01T14:07:07.596Z,3.76
2024-01-01T14:09:59.157Z,3.68
2024-01-01T14:12:51.206Z,3.68
2024-01-01T14:16:10.563Z,3.66
2024-01-01T14:19:04.081Z,3.64
2024-01-01T14:22:06.751Z,3.70
2024-01-01T14:25:32.033Z,3.70
2024-01-01T14:28:37.163Z,3.71
2024-01-01T14:31:48.540Z,3.75
2024-01-01T14:34:41.435Z,3.80
2024-01-01T14:37:22.557Z,3.85
2024-01-01T14:40:16.487Z,3.84
2024-01-01T14:43:14.399Z,3.87
2024-01-01T14:46:31.564Z,3.94
2024-01-01T14:49:21.069Z,3.90
2024-01-01T14:52:30.544Z,3.88
2024-01-01T14:55:30.049Z,3.86
2024-01-01T14:58:25.148Z,3.82
2024-01-01T15:01:21.358Z,3.83
2024-01-01T15:04:10.652Z,3.89
2024-01-01T15:07:01.972Z,3.95
2024-01-01T15:09:55.393Z,4.03
2024-01-01T15:12:45.775Z,4.02
2024-01-01T15:15:16.981Z,3.93
2024-01-01T15:18:10.828Z,3.85
2024-01-01T15:21:01.709Z,3.81
2024-01-01T15:23:50.927Z,3.75
2024-01-01T15:26:56.834Z,3.76
2024-01-01T15:29:45.840Z,3.80
2024-01-01T15:32:38.761Z,3.83
2024-01-01T15:36:15.295Z,3.86
2024-01-01T15:39:19.347Z,3.93
2024-01-01T15:42:09.716Z,4.02
2024-01-01T15:45:05.754Z,4.07
2024-01-01T15:49:05.459Z,4.08
2024-01-01T15:51:39.319Z,4.06
2024-01-01T15:54:36.819Z,4.05
2024-01-01T15:57:29.532Z,4.06
2024-01-01T16:00:27.652Z,4.00
2024-01-01T16:03:27.750Z,4.02
2024-01-01T16:06:20.570Z,4.05
2024-01-01T16:09:14.518Z,4.08
2024-01-01T16:12:11.846Z,4.08
2024-01-01T16:15:04.493Z,4.11
2024-01-01T16:18:14.508Z,4.08
2024-01-01T16:21:09.436Z,4.07
2024-01-01T16:24:00.694Z,4.10
2024-01-01T16:27:10.629Z,4.09
2024-01-01T16:30:38.462Z,4.06
2024-01-01T16:34:08.748Z,4.04
2024-01-01T16:36:59.333Z,4.03
2024-01-01T16:39:53.164Z,4.06
2024-01-01T16:43:09.085Z,4.09
2024-01-01T16:46:09.897Z,4.13
2024-01-01T16:49:09.699Z,4.15
2024-01-01T16:52:10.693Z,4.18
2024-01-01T16:55:03.691Z,4.22
2024-01-01T16:58:13.352Z,4.27
2024-01-01T17:01:07.154Z,4.33
2024-01-01T17:04:17.752Z,4.39
2024-01-01T17:07:09.411Z,4.37
2024-01-01T17:10:06.343Z,4.38
2024-01-01T17:12:57.872Z,4.39
2024-01-01T17:15:47.409Z,4.42
2024-01-01T17:18:43.598Z,4.40
2024-01-01T17:21:58.529Z,4.38
2024-01-01T17:25:24.270Z,4.37
2024-01-01T17:28:33.981Z,4.36
2024-01-01T17:32:04.997Z,4.36
2024-01-01T17:35:08.794Z,4.36
2024-01-01T17:38:08.299Z,4.36
2024-01-01T17:41:38.170Z,4.36
2024-01-01T17:44:40.728Z,4.36
2024-01-01T17:47:50.275Z,4.37
2024-01-01T17:51:40.405Z,4.38
2024-01-01T17:54:49.577Z,4.38
2024-01-01T17:58:06.354Z,4.35
2024-01-01T18:01:22.219Z,4.32
2024-01-01T18:04:21.436Z,4.34
2024-01-01T18:07:41.337Z,4.36
2024-01-01T18:11:30.588Z,4.35
2024-01-01T18:14:46.731Z,4.38
2024-01-01T18:18:06.609Z,4.45
2024-01-01T18:21:04.783Z,4.47
2024-01-01T18:24:17.188Z,4.47
2024-01-01T18:27:34.285Z,4.46
2024-01-01T18:30:51.314Z,4.42
2024-01-01T18:33:43.328Z,4.36
2024-01-01T18:36:33.806Z,4.34
2024-01-01T18:39:35.738Z,4.34
2024-01-01T18:42:35.174Z,4.32
2024-01-01T18:45:37.643Z,4.33
2024-01-01T18:48:39.307Z,4.33
2024-01-01T18:51:33.268Z,4.31
2024-01-01T18:54:34.120Z,4.28
2024-01-01T18:57:26.699Z,4.26
2024-01-01T19:00:33.993Z,4.26
2024-01-01T19:04:01.123Z,4.29
2024-01-01T19:07:32.461Z,4.35
2024-01-01T19:10:49.202Z,4.33
2024-01-01T19:14:33.129Z,4.30
2024-01-01T19:17:45.535Z,4.26
2024-01-01T19:20:41.770Z,4.27
2024-01-01T19:23:30.883Z,4.26
2024-01-01T19:26:20.110Z,4.24
2024-01-01T19:29:09.485Z,4.27
2024-01-01T19:31:58.999Z,4.28
2024-01-01T19:34:48.274Z,4.27
2024-01-01T19:37:37.788Z,4.23
2024-01-01T19:40:30.318Z,4.18
2024-01-01T19:43:33.336Z,4.17
2024-01-01T20:07:13.050Z,3.82
2024-01-01T20:10:06.429Z,3.71
2024-01-01T20:13:08.257Z,3.67
2024-01-01T20:16:07.543Z,3.65
2024-01-01T20:19:01.400Z,3.63
2024-01-01T20:21:57.318Z,3.63
2024-01-01T20:24:51.512Z,3.64
2024-01-01T20:27:44.539Z,3.66
2024-01-01T20:30:44.577Z,3.68
2024-01-01T20:33:32.560Z,3.72
2024-01-01T20:36:30.472Z,3.74
2024-01-01T20:39:23.028Z,3.77
2024-01-01T20:42:16.119Z,3.81
2024-01-01T20:45:12.107Z,3.87
2024-01-01T20:48:12.414Z,3.92
2024-01-01T20:51:06.185Z,3.98
2024-01-01T20:54:03.799Z,4.03
2024-01-01T20:56:59.534Z,4.09
2024-01-01T21:00:44.210Z,4.11
2024-01-01T21:03:12.491Z,4.13
2024-01-01T21:06:08.021Z,4.15
2024-01-01T21:09:02.956Z,4.15
2024-01-01T21:12:09.702Z,4.14
2024-01-01T21:15:02.267Z,4.18
2024-01-01T21:17:55.203Z,4.20
2024-01-01T21:20:47.884Z,4.22
2024-01-01T21:23:40.796Z,4.24
2024-01-01T21:26:34.455Z,4.28
2024-01-01T21:29:31.095Z,4.35
2024-01-01T21:32:27.611Z,4.38
2024-01-01T21:36:19.992Z,4.40
2024-01-01T21:39:05.901Z,4.40
2024-01-01T21:42:31.052Z,4.37
2024-01-01T21:46:01.152Z,4.36
2024-01-01T21:49:08.126Z,4.38
2024-01-01T21:52:05.914Z,4.41
2024-01-01T21:54:59.745Z,4.43
2024-01-01T21:57:54.141Z,4.43
2024-01-01T22:00:49.344Z,4.42
2024-01-01T22:03:42.495Z,4.45
2024-01-01T22:06:39.484Z,4.43
2024-01-01T22:09:33.050Z,4.42
2024-01-01T22:12:28.186Z,4.42
2024-01-01T22:15:25.932Z,4.42
2024-01-01T22:18:20.327Z,4.43
2024-01-01T22:21:07.237Z,4.44
2024-01-01T22:24:01.397Z,4.42
2024-01-01T22:26:54.992Z,4.40
2024-01-01T22:29:48.125Z,4.40
2024-01-01T22:32:43.988Z,4.38
2024-01-01T22:35:51.544Z,4.37
2024-01-01T22:39:06.199Z,4.37
2024-01-01T22:42:00.405Z,4.37
2024-01-01T22:45:05.696Z,4.37
2024-01-01T22:48:01.894Z,4.34
2024-01-01T22:50:44.609Z,4.32
2024-01-01T22:53:31.870Z,4.31
2024-01-01T22:56:17.529Z,4.27
2024-01-01T22:59:11.908Z,4.27
2024-01-01T23:02:05.609Z,4.26
2024-01-01T23:04:59.992Z,4.24
2024-01-01T23:08:13.505Z,4.22
2024-01-01T23:10:58.614Z,4.20
2024-01-01T23:13:32.070Z,4.17
2024-01-01T23:16:28.485Z,4.16
2024-01-01T23:19:23.746Z,4.11
2024-01-01T23:22:20.701Z,4.05
2024-01-01T23:25:15.035Z,4.00
2024-01-01T23:28:10.987Z,3.97
2024-01-01T23:31:03.953Z,3.94
2024-01-01T23:34:05.080Z,3.88
2024-01-01T23:37:05.150Z,3.85
2024-01-01T23:39:59.211Z,3.83
2024-01-01T23:42:52.087Z,3.82
2024-01-01T23:45:47.188Z,3.80
2024-01-01T23:48:39.649Z,3.80
2024-01-01T23:51:32.273Z,3.81
2024-01-01T23:54:24.976Z,3.82
2024-01-01T23:57:18.068Z,3.81
